sensor_id;sensor_type;location;lat;lon;timestamp;pressure;altitude;pressure_sealevel;temperature;humidity
54407;BME280;40313;50.308;30.374;2022-10-18T00:01:40;101049.91;;;9.07;100.00
54407;BME280;40313;50.308;30.374;2022-10-18T00:04:06;101043.91;;;9.05;100.00
54407;BME280;40313;50.308;30.374;2022-10-18T00:06:34;101041.34;;;9.04;100.00
54407;BME280;40313;50.308;30.374;2022-10-18T00:09:00;101040.56;;;9.00;100.00
54407;BME280;40313;50.308;30.374;2022-10-18T00:11:27;101038.22;;;8.91;100.00
54407;BME280;40313;50.308;30.374;2022-10-18T00:13:54;101028.78;;;8.87;100.00
54407;BME280;40313;50.308;30.374;2022-10-18T00:16:21;101026.19;;;8.87;100.00
54407;BME280;40313;50.308;30.374;2022-10-18T00:18:48;101027.94;;;8.86;100.00
54407;BME280;40313;50.308;30.374;2022-10-18T00:21:16;101027.94;;;8.86;100.00
54407;BME280;40313;50.308;30.374;2022-10-18T00:23:45;101032.31;;;8.84;100.00
54407;BME280;40313;50.308;30.374;2022-10-18T00:26:13;101029.75;;;8.82;100.00
54407;BME280;40313;50.308;30.374;2022-10-18T00:28:41;101018.69;;;8.74;100.00
54407;BME280;40313;50.308;30.374;2022-10-18T00:31:09;101022.97;;;8.77;100.00
54407;BME280;40313;50.308;30.374;2022-10-18T00:33:36;101023.84;;;8.77;100.00
54407;BME280;40313;50.308;30.374;2022-10-18T00:36:03;101010.84;;;8.76;100.00
54407;BME280;40313;50.308;30.374;2022-10-18T00:38:29;101014.41;;;8.73;100.00
54407;BME280;40313;50.308;30.374;2022-10-18T00:40:57;101013.63;;;8.70;100.00
54407;BME280;40313;50.308;30.374;2022-10-18T00:43:24;101015.47;;;8.66;100.00
54407;BME280;40313;50.308;30.374;2022-10-18T00:45:50;101012.97;;;8.61;100.00
54407;BME280;40313;50.308;30.374;2022-10-18T00:48:18;101019.97;;;8.59;100.00
54407;BME280;40313;50.308;30.374;2022-10-18T00:50:45;101018.28;;;8.57;100.00
54407;BME280;40313;50.308;30.374;2022-10-18T00:53:15;101011.44;;;8.53;100.00
54407;BME280;40313;50.308;30.374;2022-10-18T00:55:43;101008.09;;;8.49;100.00
54407;BME280;40313;50.308;30.374;2022-10-18T00:58:12;101006.47;;;8.45;100.00
54407;BME280;40313;50.308;30.374;2022-10-18T01:00:40;101009.16;;;8.40;100.00
54407;BME280;40313;50.308;30.374;2022-10-18T01:03:07;101009.16;;;8.40;100.00
54407;BME280;40313;50.308;30.374;2022-10-18T01:05:36;101007.44;;;8.39;100.00
54407;BME280;40313;50.308;30.374;2022-10-18T01:08:15;100998.75;;;8.40;100.00
54407;BME280;40313;50.308;30.374;2022-10-18T01:11:00;101000.53;;;8.38;100.00
54407;BME280;40313;50.308;30.374;2022-10-18T01:13:40;101005.81;;;8.35;100.00
54407;BME280;40313;50.308;30.374;2022-10-18T01:16:19;101005.84;;;8.34;100.00
54407;BME280;40313;50.308;30.374;2022-10-18T01:18:50;101004.97;;;8.35;100.00
54407;BME280;40313;50.308;30.374;2022-10-18T01:21:34;100991.91;;;8.36;100.00
54407;BME280;40313;50.308;30.374;2022-10-18T01:27:28;100983.38;;;8.31;100.00
54407;BME280;40313;50.308;30.374;2022-10-18T01:30:16;100987.69;;;8.32;100.00
54407;BME280;40313;50.308;30.374;2022-10-18T01:32:47;100981.69;;;8.28;100.00
54407;BME280;40313;50.308;30.374;2022-10-18T01:35:18;100986.09;;;8.26;100.00
54407;BME280;40313;50.308;30.374;2022-10-18T01:37:47;100989.53;;;8.27;100.00
54407;BME280;40313;50.308;30.374;2022-10-18T01:40:17;100981.78;;;8.25;100.00
54407;BME280;40313;50.308;30.374;2022-10-18T01:42:45;100978.34;;;8.25;100.00
54407;BME280;40313;50.308;30.374;2022-10-18T01:45:14;100971.41;;;8.24;100.00
54407;BME280;40313;50.308;30.374;2022-10-18T01:47:43;100972.28;;;8.23;100.00
54407;BME280;40313;50.308;30.374;2022-10-18T01:50:11;100961.13;;;8.19;100.00
54407;BME280;40313;50.308;30.374;2022-10-18T01:52:46;100968.06;;;8.20;100.00
54407;BME280;40313;50.308;30.374;2022-10-18T01:55:13;100962.03;;;8.18;100.00
54407;BME280;40313;50.308;30.374;2022-10-18T01:57:43;100961.19;;;8.18;100.00
54407;BME280;40313;50.308;30.374;2022-10-18T02:00:14;100962.91;;;8.17;100.00
54407;BME280;40313;50.308;30.374;2022-10-18T02:02:47;100951.66;;;8.17;100.00
54407;BME280;40313;50.308;30.374;2022-10-18T02:05:21;100950.88;;;8.15;100.00
54407;BME280;40313;50.308;30.374;2022-10-18T02:07:52;100944.88;;;8.11;100.00
54407;BME280;40313;50.308;30.374;2022-10-18T02:10:25;100944.88;;;8.11;100.00
54407;BME280;40313;50.308;30.374;2022-10-18T02:12:55;100944.03;;;8.10;100.00
54407;BME280;40313;50.308;30.374;2022-10-18T02:15:25;100932.84;;;8.07;100.00
54407;BME280;40313;50.308;30.374;2022-10-18T02:17:55;100938.91;;;8.07;100.00
54407;BME280;40313;50.308;30.374;2022-10-18T02:20:23;100930.28;;;8.05;100.00
54407;BME280;40313;50.308;30.374;2022-10-18T02:22:52;100928.63;;;8.03;100.00
54407;BME280;40313;50.308;30.374;2022-10-18T02:25:23;100925.09;;;8.05;100.00
54407;BME280;40313;50.308;30.374;2022-10-18T02:27:51;100923.38;;;8.04;100.00
54407;BME280;40313;50.308;30.374;2022-10-18T02:30:20;100921.69;;;8.03;100.00
54407;BME280;40313;50.308;30.374;2022-10-18T02:32:55;100908.66;;;8.05;100.00
54407;BME280;40313;50.308;30.374;2022-10-18T02:35:26;100909.63;;;8.01;100.00
54407;BME280;40313;50.308;30.374;2022-10-18T02:37:56;100914.75;;;8.04;100.00
54407;BME280;40313;50.308;30.374;2022-10-18T02:40:23;100906.09;;;8.03;100.00
54407;BME280;40313;50.308;30.374;2022-10-18T02:42:54;100903.56;;;8.00;100.00
54407;BME280;40313;50.308;30.374;2022-10-18T02:45:21;100903.56;;;8.00;100.00
54407;BME280;40313;50.308;30.374;2022-10-18T02:47:48;100901.13;;;7.94;100.00
54407;BME280;40313;50.308;30.374;2022-10-18T02:50:16;100900.94;;;8.00;100.00
54407;BME280;40313;50.308;30.374;2022-10-18T02:52:43;100901.91;;;7.98;100.00
54407;BME280;40313;50.308;30.374;2022-10-18T02:55:09;100905.31;;;8.00;100.00
54407;BME280;40313;50.308;30.374;2022-10-18T02:57:36;100899.28;;;7.99;100.00
54407;BME280;40313;50.308;30.374;2022-10-18T03:00:04;100897.59;;;7.96;100.00
54407;BME280;40313;50.308;30.374;2022-10-18T03:02:31;100893.25;;;7.97;100.00
54407;BME280;40313;50.308;30.374;2022-10-18T03:04:58;100896.75;;;7.96;100.00
54407;BME280;40313;50.308;30.374;2022-10-18T03:07:26;100895.91;;;7.94;100.00
54407;BME280;40313;50.308;30.374;2022-10-18T03:09:52;100887.31;;;7.92;100.00
54407;BME280;40313;50.308;30.374;2022-10-18T03:12:19;100887.38;;;7.90;100.00
54407;BME280;40313;50.308;30.374;2022-10-18T03:14:45;100883.09;;;7.88;100.00
54407;BME280;40313;50.308;30.374;2022-10-18T03:17:12;100881.34;;;7.88;100.00
54407;BME280;40313;50.308;30.374;2022-10-18T03:19:38;100880.50;;;7.88;100.00
54407;BME280;40313;50.308;30.374;2022-10-18T03:22:05;100872.75;;;7.86;100.00
54407;BME280;40313;50.308;30.374;2022-10-18T03:24:33;100868.44;;;7.85;100.00
54407;BME280;40313;50.308;30.374;2022-10-18T03:26:59;100863.28;;;7.84;100.00
54407;BME280;40313;50.308;30.374;2022-10-18T03:29:26;100863.28;;;7.84;100.00
54407;BME280;40313;50.308;30.374;2022-10-18T03:31:53;100865.88;;;7.84;100.00
54407;BME280;40313;50.308;30.374;2022-10-18T03:34:19;100857.25;;;7.83;100.00
54407;BME280;40313;50.308;30.374;2022-10-18T03:36:46;100859.88;;;7.82;100.00
54407;BME280;40313;50.308;30.374;2022-10-18T03:39:12;100865.91;;;7.82;100.00
54407;BME280;40313;50.308;30.374;2022-10-18T03:41:40;100856.38;;;7.83;100.00
54407;BME280;40313;50.308;30.374;2022-10-18T03:44:07;100861.56;;;7.83;100.00
54407;BME280;40313;50.308;30.374;2022-10-18T03:46:33;100851.16;;;7.83;100.00
54407;BME280;40313;50.308;30.374;2022-10-18T03:49:00;100854.69;;;7.82;100.00
54407;BME280;40313;50.308;30.374;2022-10-18T03:51:27;100855.53;;;7.82;100.00
54407;BME280;40313;50.308;30.374;2022-10-18T03:53:53;100854.69;;;7.80;100.00
54407;BME280;40313;50.308;30.374;2022-10-18T03:56:20;100854.69;;;7.82;100.00
54407;BME280;40313;50.308;30.374;2022-10-18T03:58:47;100857.28;;;7.80;100.00
54407;BME280;40313;50.308;30.374;2022-10-18T04:01:14;100857.28;;;7.82;100.00
54407;BME280;40313;50.308;30.374;2022-10-18T04:03:40;100851.25;;;7.79;100.00
54407;BME280;40313;50.308;30.374;2022-10-18T04:06:07;100844.34;;;7.78;100.00
54407;BME280;40313;50.308;30.374;2022-10-18T04:08:34;100851.25;;;7.79;100.00
54407;BME280;40313;50.308;30.374;2022-10-18T04:11:04;100850.41;;;7.79;100.00
54407;BME280;40313;50.308;30.374;2022-10-18T04:13:32;100854.69;;;7.80;100.00
54407;BME280;40313;50.308;30.374;2022-10-18T04:16:00;100846.06;;;7.79;100.00
54407;BME280;40313;50.308;30.374;2022-10-18T04:18:26;100835.72;;;7.78;100.00
54407;BME280;40313;50.308;30.374;2022-10-18T04:20:53;100833.94;;;7.78;100.00
54407;BME280;40313;50.308;30.374;2022-10-18T04:23:19;100829.59;;;7.81;100.00
54407;BME280;40313;50.308;30.374;2022-10-18T04:25:46;100831.31;;;7.80;100.00
54407;BME280;40313;50.308;30.374;2022-10-18T04:28:13;100828.72;;;7.80;100.00
54407;BME280;40313;50.308;30.374;2022-10-18T04:30:39;100828.69;;;7.82;100.00
54407;BME280;40313;50.308;30.374;2022-10-18T04:33:07;100829.53;;;7.82;100.00
54407;BME280;40313;50.308;30.374;2022-10-18T04:35:35;100827.75;;;7.84;100.00
54407;BME280;40313;50.308;30.374;2022-10-18T04:38:01;100821.63;;;7.87;100.00
54407;BME280;40313;50.308;30.374;2022-10-18T04:40:28;100826.81;;;7.87;100.00
54407;BME280;40313;50.308;30.374;2022-10-18T04:42:54;100816.34;;;7.90;100.00
54407;BME280;40313;50.308;30.374;2022-10-18T04:45:21;100817.16;;;7.92;100.00
54407;BME280;40313;50.308;30.374;2022-10-18T04:47:47;100805.81;;;7.96;100.00
54407;BME280;40313;50.308;30.374;2022-10-18T04:50:15;100807.50;;;7.97;100.00
54407;BME280;40313;50.308;30.374;2022-10-18T04:52:42;100800.44;;;8.02;100.00
54407;BME280;40313;50.308;30.374;2022-10-18T04:55:08;100805.47;;;8.08;100.00
54407;BME280;40313;50.308;30.374;2022-10-18T04:57:35;100808.75;;;8.15;100.00
54407;BME280;40313;50.308;30.374;2022-10-18T05:00:02;100806.91;;;8.19;100.00
54407;BME280;40313;50.308;30.374;2022-10-18T05:02:29;100802.34;;;8.27;100.00
54407;BME280;40313;50.308;30.374;2022-10-18T05:04:55;100797.88;;;8.32;100.00
54407;BME280;40313;50.308;30.374;2022-10-18T05:07:23;100798.59;;;8.37;100.00
54407;BME280;40313;50.308;30.374;2022-10-18T05:09:50;100801.09;;;8.42;100.00
54407;BME280;40313;50.308;30.374;2022-10-18T05:12:16;100804.47;;;8.45;100.00
54407;BME280;40313;50.308;30.374;2022-10-18T05:14:43;100801.66;;;8.53;100.00
54407;BME280;40313;50.308;30.374;2022-10-18T05:17:09;100798.03;;;8.57;100.00
54407;BME280;40313;50.308;30.374;2022-10-18T05:19:36;100803.97;;;8.62;100.00
54407;BME280;40313;50.308;30.374;2022-10-18T05:22:02;100802.91;;;8.70;100.00
54407;BME280;40313;50.308;30.374;2022-10-18T05:24:30;100800.16;;;8.74;100.00
54407;BME280;40313;50.308;30.374;2022-10-18T05:26:57;100798.22;;;8.81;100.00
54407;BME280;40313;50.308;30.374;2022-10-18T05:29:24;100799.78;;;8.87;100.00
54407;BME280;40313;50.308;30.374;2022-10-18T05:31:50;100796.94;;;8.94;100.00
54407;BME280;40313;50.308;30.374;2022-10-18T05:34:17;100798.44;;;9.03;100.00
54407;BME280;40313;50.308;30.374;2022-10-18T05:36:44;100781.72;;;9.10;100.00
54407;BME280;40313;50.308;30.374;2022-10-18T05:39:11;100792.75;;;9.17;100.00
54407;BME280;40313;50.308;30.374;2022-10-18T05:41:39;100784.66;;;9.26;100.00
54407;BME280;40313;50.308;30.374;2022-10-18T05:44:06;100784.41;;;9.34;100.00
54407;BME280;40313;50.308;30.374;2022-10-18T05:46:33;100786.69;;;9.45;100.00
54407;BME280;40313;50.308;30.374;2022-10-18T05:48:59;100786.28;;;9.56;100.00
54407;BME280;40313;50.308;30.374;2022-10-18T05:51:26;100791.03;;;9.69;100.00
54407;BME280;40313;50.308;30.374;2022-10-18T05:53:52;100787.06;;;9.84;100.00
54407;BME280;40313;50.308;30.374;2022-10-18T05:56:19;100786.63;;;9.97;100.00
54407;BME280;40313;50.308;30.374;2022-10-18T05:58:48;100795.81;;;10.07;100.00
54407;BME280;40313;50.308;30.374;2022-10-18T06:01:15;100792.00;;;10.17;100.00
54407;BME280;40313;50.308;30.374;2022-10-18T06:03:42;100793.47;;;10.25;100.00
54407;BME280;40313;50.308;30.374;2022-10-18T06:06:10;100790.56;;;10.32;100.00
54407;BME280;40313;50.308;30.374;2022-10-18T06:08:38;100788.63;;;10.39;100.00
54407;BME280;40313;50.308;30.374;2022-10-18T06:11:06;100796.09;;;10.48;100.00
54407;BME280;40313;50.308;30.374;2022-10-18T06:13:33;100800.19;;;10.55;100.00
54407;BME280;40313;50.308;30.374;2022-10-18T06:16:02;100794.56;;;10.66;100.00
54407;BME280;40313;50.308;30.374;2022-10-18T06:18:29;100810.59;;;10.79;100.00
54407;BME280;40313;50.308;30.374;2022-10-18T06:20:56;100805.13;;;10.85;100.00
54407;BME280;40313;50.308;30.374;2022-10-18T06:23:23;100811.81;;;10.93;100.00
54407;BME280;40313;50.308;30.374;2022-10-18T06:25:50;100815.00;;;11.01;100.00
54407;BME280;40313;50.308;30.374;2022-10-18T06:28:16;100818.31;;;11.04;100.00
54407;BME280;40313;50.308;30.374;2022-10-18T06:30:43;100811.94;;;11.12;100.00
54407;BME280;40313;50.308;30.374;2022-10-18T06:33:11;100813.47;;;11.17;100.00
54407;BME280;40313;50.308;30.374;2022-10-18T06:35:37;100812.44;;;11.21;100.00
54407;BME280;40313;50.308;30.374;2022-10-18T06:38:04;100809.66;;;11.26;100.00
54407;BME280;40313;50.308;30.374;2022-10-18T06:40:31;100806.66;;;11.35;100.00
54407;BME280;40313;50.308;30.374;2022-10-18T06:43:02;100795.78;;;11.46;100.00
54407;BME280;40313;50.308;30.374;2022-10-18T06:45:30;100791.06;;;11.54;100.00
54407;BME280;40313;50.308;30.374;2022-10-18T06:47:57;100798.25;;;11.70;100.00
54407;BME280;40313;50.308;30.374;2022-10-18T06:50:25;100794.84;;;11.88;100.00
54407;BME280;40313;50.308;30.374;2022-10-18T06:52:51;100788.84;;;12.07;100.00
54407;BME280;40313;50.308;30.374;2022-10-18T06:55:18;100788.94;;;12.24;100.00
54407;BME280;40313;50.308;30.374;2022-10-18T06:57:45;100786.50;;;12.40;100.00
54407;BME280;40313;50.308;30.374;2022-10-18T07:00:12;100783.09;;;12.57;100.00
54407;BME280;40313;50.308;30.374;2022-10-18T07:02:39;100772.69;;;12.75;100.00
54407;BME280;40313;50.308;30.374;2022-10-18T07:05:06;100770.13;;;12.92;100.00
54407;BME280;40313;50.308;30.374;2022-10-18T07:07:34;100767.59;;;13.08;100.00
54407;BME280;40313;50.308;30.374;2022-10-18T07:10:00;100769.56;;;13.22;100.00
54407;BME280;40313;50.308;30.374;2022-10-18T07:12:27;100766.38;;;13.35;100.00
54407;BME280;40313;50.308;30.374;2022-10-18T07:14:53;100758.66;;;13.49;100.00
54407;BME280;40313;50.308;30.374;2022-10-18T07:17:20;100757.84;;;13.64;100.00
54407;BME280;40313;50.308;30.374;2022-10-18T07:19:46;100750.28;;;13.76;99.12
54407;BME280;40313;50.308;30.374;2022-10-18T07:22:13;100751.53;;;13.86;98.40
54407;BME280;40313;50.308;30.374;2022-10-18T07:24:41;100756.03;;;14.00;99.25
54407;BME280;40313;50.308;30.374;2022-10-18T07:27:07;100745.81;;;14.11;98.44
54407;BME280;40313;50.308;30.374;2022-10-18T07:29:34;100744.34;;;14.23;96.52
54407;BME280;40313;50.308;30.374;2022-10-18T07:32:02;100756.59;;;14.39;97.34
54407;BME280;40313;50.308;30.374;2022-10-18T07:34:29;100752.47;;;14.50;96.67
54407;BME280;40313;50.308;30.374;2022-10-18T07:36:55;100745.88;;;14.59;92.33
54407;BME280;40313;50.308;30.374;2022-10-18T07:39:22;100747.34;;;14.65;88.75
54407;BME280;40313;50.308;30.374;2022-10-18T07:41:50;100738.94;;;14.74;88.99
54407;BME280;40313;50.308;30.374;2022-10-18T07:44:16;100737.09;;;14.76;87.66
54407;BME280;40313;50.308;30.374;2022-10-18T07:46:43;100737.56;;;14.83;87.49
54407;BME280;40313;50.308;30.374;2022-10-18T07:49:09;100740.78;;;14.88;88.74
54407;BME280;40313;50.308;30.374;2022-10-18T07:51:36;100743.84;;;14.96;87.62
54407;BME280;40313;50.308;30.374;2022-10-18T07:54:03;100740.75;;;15.04;88.78
54407;BME280;40313;50.308;30.374;2022-10-18T07:56:29;100730.75;;;15.11;86.56
54407;BME280;40313;50.308;30.374;2022-10-18T07:58:57;100729.44;;;15.18;85.83
54407;BME280;40313;50.308;30.374;2022-10-18T08:01:24;100724.59;;;15.26;86.23
54407;BME280;40313;50.308;30.374;2022-10-18T08:03:51;100729.41;;;15.34;84.44
54407;BME280;40313;50.308;30.374;2022-10-18T08:06:19;100727.25;;;15.41;83.74
54407;BME280;40313;50.308;30.374;2022-10-18T08:08:46;100735.38;;;15.52;84.01
54407;BME280;40313;50.308;30.374;2022-10-18T08:11:14;100719.84;;;15.62;85.28
54407;BME280;40313;50.308;30.374;2022-10-18T08:13:41;100715.84;;;15.70;85.23
54407;BME280;40313;50.308;30.374;2022-10-18T08:16:11;100712.56;;;15.81;81.95
54407;BME280;40313;50.308;30.374;2022-10-18T08:18:38;100717.00;;;15.95;82.40
54407;BME280;40313;50.308;30.374;2022-10-18T08:21:07;100715.38;;;16.07;82.52
54407;BME280;40313;50.308;30.374;2022-10-18T08:23:34;100701.94;;;16.12;82.75
54407;BME280;40313;50.308;30.374;2022-10-18T08:26:01;100697.13;;;16.18;82.24
54407;BME280;40313;50.308;30.374;2022-10-18T08:28:28;100692.97;;;16.29;83.58
54407;BME280;40313;50.308;30.374;2022-10-18T08:30:55;100700.59;;;16.33;83.09
54407;BME280;40313;50.308;30.374;2022-10-18T08:33:23;100696.63;;;16.40;81.87
54407;BME280;40313;50.308;30.374;2022-10-18T08:35:55;100695.19;;;16.49;81.69
54407;BME280;40313;50.308;30.374;2022-10-18T08:38:22;100690.91;;;16.61;83.06
54407;BME280;40313;50.308;30.374;2022-10-18T08:40:49;100685.78;;;16.72;82.23
54407;BME280;40313;50.308;30.374;2022-10-18T08:43:21;100679.19;;;16.80;81.13
54407;BME280;40313;50.308;30.374;2022-10-18T08:45:50;100681.22;;;16.89;81.79
54407;BME280;40313;50.308;30.374;2022-10-18T08:48:21;100675.56;;;16.95;81.15
54407;BME280;40313;50.308;30.374;2022-10-18T08:50:53;100673.28;;;17.03;80.99
54407;BME280;40313;50.308;30.374;2022-10-18T08:53:26;100671.81;;;17.12;79.76
54407;BME280;40313;50.308;30.374;2022-10-18T08:55:59;100659.78;;;17.21;79.50
54407;BME280;40313;50.308;30.374;2022-10-18T08:58:30;100661.06;;;17.28;79.62
54407;BME280;40313;50.308;30.374;2022-10-18T09:01:02;100658.00;;;17.34;79.31
54407;BME280;40313;50.308;30.374;2022-10-18T09:03:54;100658.84;;;17.48;78.63
54407;BME280;40313;50.308;30.374;2022-10-18T09:06:27;100651.97;;;17.58;78.55
54407;BME280;40313;50.308;30.374;2022-10-18T09:09:05;100650.72;;;17.64;78.35
54407;BME280;40313;50.308;30.374;2022-10-18T09:11:43;100650.50;;;17.67;77.63
54407;BME280;40313;50.308;30.374;2022-10-18T09:14:49;100647.31;;;17.74;77.78
54407;BME280;40313;50.308;30.374;2022-10-18T09:17:28;100639.69;;;17.83;78.15
54407;BME280;40313;50.308;30.374;2022-10-18T09:20:10;100637.41;;;17.91;76.94
54407;BME280;40313;50.308;30.374;2022-10-18T09:22:50;100634.53;;;17.94;75.83
54407;BME280;40313;50.308;30.374;2022-10-18T09:25:19;100625.44;;;17.98;78.13
54407;BME280;40313;50.308;30.374;2022-10-18T09:27:51;100622.13;;;18.07;76.96
54407;BME280;40313;50.308;30.374;2022-10-18T09:30:24;100614.50;;;18.16;76.70
54407;BME280;40313;50.308;30.374;2022-10-18T09:32:55;100617.19;;;18.27;75.25
54407;BME280;40313;50.308;30.374;2022-10-18T09:35:28;100609.56;;;18.35;75.72
54407;BME280;40313;50.308;30.374;2022-10-18T09:38:01;100611.75;;;18.41;75.14
54407;BME280;40313;50.308;30.374;2022-10-18T09:40:32;100601.69;;;18.46;74.59
54407;BME280;40313;50.308;30.374;2022-10-18T09:43:05;100603.03;;;18.52;73.06
54407;BME280;40313;50.308;30.374;2022-10-18T09:45:34;100592.13;;;18.57;72.72
54407;BME280;40313;50.308;30.374;2022-10-18T09:48:06;100590.00;;;18.62;72.69
54407;BME280;40313;50.308;30.374;2022-10-18T09:50:39;100577.38;;;18.65;72.76
54407;BME280;40313;50.308;30.374;2022-10-18T09:53:14;100579.34;;;18.75;71.97
54407;BME280;40313;50.308;30.374;2022-10-18T09:55:54;100578.84;;;18.81;71.73
54407;BME280;40313;50.308;30.374;2022-10-18T09:58:25;100563.59;;;18.85;71.44
54407;BME280;40313;50.308;30.374;2022-10-18T10:00:54;100559.78;;;18.89;70.40
54407;BME280;40313;50.308;30.374;2022-10-18T10:03:22;100550.19;;;18.99;70.65
54407;BME280;40313;50.308;30.374;2022-10-18T10:06:00;100560.19;;;19.07;71.79
54407;BME280;40313;50.308;30.374;2022-10-18T10:08:32;100551.41;;;19.06;71.86
54407;BME280;40313;50.308;30.374;2022-10-18T10:10:59;100547.53;;;19.10;69.89
54407;BME280;40313;50.308;30.374;2022-10-18T10:13:27;100540.94;;;19.16;70.26
54407;BME280;40313;50.308;30.374;2022-10-18T10:15:55;100544.91;;;19.22;69.94
54407;BME280;40313;50.308;30.374;2022-10-18T10:18:23;100535.78;;;19.26;69.37
54407;BME280;40313;50.308;30.374;2022-10-18T10:20:52;100535.41;;;19.30;69.61
54407;BME280;40313;50.308;30.374;2022-10-18T10:23:22;100525.06;;;19.39;67.96
54407;BME280;40313;50.308;30.374;2022-10-18T10:25:53;100526.38;;;19.44;67.98
54407;BME280;40313;50.308;30.374;2022-10-18T10:28:22;100518.19;;;19.47;67.07
54407;BME280;40313;50.308;30.374;2022-10-18T10:30:49;100511.69;;;19.51;66.77
54407;BME280;40313;50.308;30.374;2022-10-18T10:33:33;100510.75;;;19.52;65.23
54407;BME280;40313;50.308;30.374;2022-10-18T10:36:01;100505.19;;;19.56;64.64
54407;BME280;40313;50.308;30.374;2022-10-18T10:38:30;100509.97;;;19.62;65.22
54407;BME280;40313;50.308;30.374;2022-10-18T10:40:58;100505.88;;;19.69;65.54
54407;BME280;40313;50.308;30.374;2022-10-18T10:43:26;100509.00;;;19.74;64.61
54407;BME280;40313;50.308;30.374;2022-10-18T10:46:00;100504.31;;;19.78;64.10
54407;BME280;40313;50.308;30.374;2022-10-18T10:48:29;100490.00;;;19.80;63.77
54407;BME280;40313;50.308;30.374;2022-10-18T10:51:00;100483.97;;;19.78;62.55
54407;BME280;40313;50.308;30.374;2022-10-18T10:53:33;100482.66;;;19.84;63.39
54407;BME280;40313;50.308;30.374;2022-10-18T10:56:03;100477.94;;;19.88;63.00
54407;BME280;40313;50.308;30.374;2022-10-18T10:58:34;100474.81;;;19.94;63.29
54407;BME280;40313;50.308;30.374;2022-10-18T11:01:30;100467.69;;;19.94;61.40
54407;BME280;40313;50.308;30.374;2022-10-18T11:03:59;100475.25;;;19.99;62.31
54407;BME280;40313;50.308;30.374;2022-10-18T11:06:49;100468.97;;;20.00;61.46
54407;BME280;40313;50.308;30.374;2022-10-18T11:09:43;100470.53;;;20.02;61.23
54407;BME280;40313;50.308;30.374;2022-10-18T11:12:25;100462.81;;;20.11;61.34
54407;BME280;40313;50.308;30.374;2022-10-18T11:15:01;100454.47;;;20.15;61.76
54407;BME280;40313;50.308;30.374;2022-10-18T11:17:34;100450.59;;;20.19;62.14
54407;BME280;40313;50.308;30.374;2022-10-18T11:20:13;100451.16;;;20.23;60.71
54407;BME280;40313;50.308;30.374;2022-10-18T11:22:48;100445.72;;;20.25;61.98
54407;BME280;40313;50.308;30.374;2022-10-18T11:25:16;100444.78;;;20.26;61.54
54407;BME280;40313;50.308;30.374;2022-10-18T11:27:48;100436.97;;;20.24;59.63
54407;BME280;40313;50.308;30.374;2022-10-18T11:30:36;100435.34;;;20.33;59.73
54407;BME280;40313;50.308;30.374;2022-10-18T11:33:18;100415.97;;;20.32;61.04
54407;BME280;40313;50.308;30.374;2022-10-18T11:35:50;100418.53;;;20.44;61.36
54407;BME280;40313;50.308;30.374;2022-10-18T11:38:28;100414.78;;;20.46;61.10
54407;BME280;40313;50.308;30.374;2022-10-18T11:41:09;100407.66;;;20.47;58.84
54407;BME280;40313;50.308;30.374;2022-10-18T11:43:47;100408.69;;;20.55;57.97
54407;BME280;40313;50.308;30.374;2022-10-18T11:46:24;100408.69;;;20.55;57.04
54407;BME280;40313;50.308;30.374;2022-10-18T11:49:09;100405.91;;;20.57;55.95
54407;BME280;40313;50.308;30.374;2022-10-18T11:51:49;100401.41;;;20.58;57.11
54407;BME280;40313;50.308;30.374;2022-10-18T11:54:33;100398.53;;;20.61;57.27
54407;BME280;40313;50.308;30.374;2022-10-18T11:57:14;100383.47;;;20.61;56.56
54407;BME280;40313;50.308;30.374;2022-10-18T11:59:55;100391.00;;;20.66;57.06
54407;BME280;40313;50.308;30.374;2022-10-18T12:02:47;100380.81;;;20.61;55.67
54407;BME280;40313;50.308;30.374;2022-10-18T12:05:19;100379.56;;;20.65;56.14
54407;BME280;40313;50.308;30.374;2022-10-18T12:07:52;100388.84;;;20.71;55.55
54407;BME280;40313;50.308;30.374;2022-10-18T12:10:20;100368.03;;;20.76;55.66
54407;BME280;40313;50.308;30.374;2022-10-18T12:12:50;100368.50;;;20.81;56.83
54407;BME280;40313;50.308;30.374;2022-10-18T12:15:21;100365.00;;;20.81;55.78
54407;BME280;40313;50.308;30.374;2022-10-18T12:17:51;100359.44;;;20.84;56.13
54407;BME280;40313;50.308;30.374;2022-10-18T12:20:23;100344.47;;;20.83;56.26
54407;BME280;40313;50.308;30.374;2022-10-18T12:22:59;100346.03;;;20.85;56.20
54407;BME280;40313;50.308;30.374;2022-10-18T12:25:27;100354.13;;;20.84;56.08
54407;BME280;40313;50.308;30.374;2022-10-18T12:27:56;100356.63;;;20.85;56.16
54407;BME280;40313;50.308;30.374;2022-10-18T12:30:32;100351.59;;;20.82;55.01
54407;BME280;40313;50.308;30.374;2022-10-18T12:33:04;100338.22;;;20.84;55.69
54407;BME280;40313;50.308;30.374;2022-10-18T12:35:41;100340.72;;;20.85;55.13
54407;BME280;40313;50.308;30.374;2022-10-18T12:38:16;100344.06;;;20.87;55.88
54407;BME280;40313;50.308;30.374;2022-10-18T12:40:47;100334.19;;;20.89;55.31
54407;BME280;40313;50.308;30.374;2022-10-18T12:43:17;100328.72;;;20.91;54.99
54407;BME280;40313;50.308;30.374;2022-10-18T12:45:50;100328.72;;;20.91;55.00
54407;BME280;40313;50.308;30.374;2022-10-18T12:48:29;100318.53;;;20.86;53.53
54407;BME280;40313;50.308;30.374;2022-10-18T12:50:59;100324.69;;;20.87;54.11
54407;BME280;40313;50.308;30.374;2022-10-18T12:53:29;100318.00;;;20.93;53.47
54407;BME280;40313;50.308;30.374;2022-10-18T12:56:36;100311.00;;;20.92;51.59